createdAt,value
2023-03-03T12:47:55.487Z,86.58
2023-03-03T12:48:55.079Z,83.89
2023-03-03T12:50:06.646Z,85.18
2023-03-03T12:50:55.065Z,87.00
2023-03-03T12:51:55.109Z,86.45
2023-03-03T12:53:01.851Z,88.42
2023-03-03T12:54:01.283Z,86.84
2023-03-03T12:54:55.411Z,87.41
2023-03-03T12:55:55.269Z,88.79
2023-03-03T12:57:00.858Z,89.94
2023-03-03T12:57:55.232Z,89.63
2023-03-03T12:58:55.302Z,88.58
2023-03-03T12:59:55.236Z,89.00
2023-03-03T13:00:57.309Z,88.69
2023-03-03T13:01:55.213Z,91.68
2023-03-03T13:02:55.243Z,90.63
2023-03-03T13:03:58.421Z,91.39
2023-03-03T13:04:55.231Z,90.91
2023-03-03T13:05:58.189Z,89.46
2023-03-03T13:06:55.405Z,87.64
2023-03-03T13:07:55.281Z,90.03
2023-03-03T13:08:55.308Z,90.80
2023-03-03T13:09:55.234Z,92.66
2023-03-03T13:10:55.302Z,90.11
2023-03-03T13:11:55.248Z,92.08
2023-03-03T13:12:55.265Z,91.24
2023-03-03T13:13:55.292Z,91.21
2023-03-03T13:14:55.353Z,90.83
2023-03-03T13:15:56.478Z,89.63
2023-03-03T13:16:55.299Z,91.32
2023-03-03T13:17:55.252Z,91.26
2023-03-03T13:18:55.241Z,90.75
2023-03-03T13:19:55.293Z,92.55
2023-03-03T13:20:55.237Z,91.77
2023-03-03T13:21:55.747Z,92.36
2023-03-03T13:22:55.310Z,92.77
2023-03-03T13:23:55.268Z,94.13
2023-03-03T13:24:55.349Z,95.08
2023-03-03T13:25:55.380Z,96.45
2023-03-03T13:26:57.945Z,95.66
2023-03-03T13:27:55.343Z,93.83
2023-03-03T13:28:55.266Z,96.29
2023-03-03T13:29:55.266Z,93.79
2023-03-03T13:30:57.363Z,96.66
2023-03-03T13:31:55.773Z,96.81
2023-03-03T13:32:55.294Z,95.45
2023-03-03T13:33:55.371Z,95.03
2023-03-03T13:34:55.314Z,98.64
2023-03-03T13:36:00.700Z,94.65
2023-03-03T13:36:58.835Z,94.70
2023-03-03T13:37:58.075Z,96.10
2023-03-03T13:38:57.605Z,95.46
2023-03-03T13:39:58.397Z,95.94
2023-03-03T13:40:55.383Z,95.32
2023-03-03T13:42:01.428Z,97.63
2023-03-03T13:42:55.319Z,96.58
2023-03-03T13:44:02.826Z,95.63
2023-03-03T13:44:55.470Z,93.74
2023-03-03T13:45:55.403Z,95.66
2023-03-03T13:46:55.527Z,96.18
2023-03-03T13:47:55.494Z,96.91
2023-03-03T13:48:55.713Z,97.14
2023-03-03T13:49:58.516Z,97.82
2023-03-03T13:50:55.579Z,97.15
2023-03-03T13:51:55.675Z,97.08
2023-03-03T13:52:55.727Z,97.48
2023-03-03T13:53:55.566Z,98.42
2023-03-03T13:54:55.587Z,94.93
2023-03-03T13:55:55.710Z,93.63
2023-03-03T13:56:55.718Z,95.93
2023-03-03T13:57:55.678Z,95.78
2023-03-03T13:58:59.978Z,95.55
2023-03-03T13:59:57.824Z,96.07
2023-03-03T14:00:55.854Z,94.16
2023-03-03T14:01:55.572Z,96.07
2023-03-03T14:02:55.698Z,96.16
2023-03-03T14:03:55.709Z,96.74
2023-03-03T14:04:55.675Z,97.97
2023-03-03T14:05:55.620Z,93.90
2023-03-03T14:06:55.683Z,95.69
2023-03-03T14:07:55.656Z,96.68
2023-03-03T14:08:55.684Z,97.13
2023-03-03T14:09:55.738Z,95.70
2023-03-03T14:10:55.716Z,95.25
2023-03-03T14:11:58.836Z,93.44
2023-03-03T14:12:58.744Z,94.23
2023-03-03T14:13:55.853Z,95.94
2023-03-03T14:14:55.910Z,98.52
2023-03-03T14:15:57.110Z,95.54
2023-03-03T14:16:56.308Z,95.89
2023-03-03T14:17:56.041Z,94.41
2023-03-03T14:18:55.791Z,95.40
2023-03-03T14:19:55.782Z,94.85
2023-03-03T14:20:55.822Z,97.50
2023-03-03T14:21:55.796Z,97.91
2023-03-03T14:22:55.821Z,97.06
2023-03-03T14:23:55.896Z,96.90
2023-03-03T14:24:55.887Z,95.50
2023-03-03T14:25:55.834Z,95.86
2023-03-03T14:26:56.116Z,97.45
2023-03-03T14:27:55.837Z,98.34
2023-03-03T14:28:55.857Z,96.44
2023-03-03T14:29:55.860Z,100.00
2023-03-03T14:30:55.971Z,99.39
2023-03-03T14:31:55.838Z,99.78
2023-03-03T14:32:55.853Z,97.92
2023-03-03T14:33:55.883Z,98.04
2023-03-03T14:34:55.899Z,95.83
2023-03-03T14:35:55.854Z,95.92
2023-03-03T14:36:55.871Z,99.06
2023-03-03T14:37:55.801Z,98.23
2023-03-03T14:38:55.856Z,100.00
2023-03-03T14:39:55.814Z,100.00
2023-03-03T14:40:55.859Z,98.09
2023-03-03T14:41:56.137Z,99.67
2023-03-03T14:42:55.862Z,98.23
2023-03-03T14:43:55.786Z,99.86
2023-03-03T14:44:55.929Z,99.79
2023-03-03T14:45:55.916Z,99.59
2023-03-03T14:46:55.824Z,97.02
2023-03-03T14:47:55.870Z,97.42
2023-03-03T14:48:56.021Z,99.45
2023-03-03T14:49:55.883Z,98.01
2023-03-03T14:50:55.925Z,98.81
2023-03-03T14:51:55.834Z,98.97
2023-03-03T14:52:55.944Z,98.07
2023-03-03T14:53:55.840Z,99.47
2023-03-03T14:54:55.929Z,100.00
2023-03-03T14:55:55.857Z,99.01
2023-03-03T14:56:55.885Z,98.97
2023-03-03T14:57:55.882Z,100.00
2023-03-03T14:58:55.846Z,97.81
2023-03-03T14:59:55.916Z,100.00
2023-03-03T15:00:55.910Z,100.00
2023-03-03T15:01:55.917Z,99.29
2023-03-03T15:02:56.024Z,99.76
2023-03-03T15:03:55.991Z,100.00
2023-03-03T15:04:56.080Z,100.00
2023-03-03T15:05:56.006Z,100.00
2023-03-03T15:06:55.975Z,100.00
2023-03-03T15:07:56.217Z,100.00
2023-03-03T15:08:56.135Z,100.00
2023-03-03T15:09:56.125Z,100.00
2023-03-03T15:10:56.110Z,100.00
2023-03-03T15:11:56.250Z,100.00
2023-03-03T15:12:56.196Z,100.00
2023-03-03T15:13:56.153Z,100.00
2023-03-03T15:14:56.265Z,100.00
2023-03-03T15:15:56.384Z,100.00
2023-03-03T15:16:56.369Z,100.00
2023-03-03T15:17:56.372Z,100.00
2023-03-03T15:18:56.331Z,100.00
2023-03-03T15:19:56.348Z,100.00
2023-03-03T15:20:56.381Z,100.00
2023-03-03T15:21:56.410Z,100.00
2023-03-03T15:22:56.431Z,99.93
2023-03-03T15:23:56.434Z,100.00
2023-03-03T15:24:56.557Z,100.00
2023-03-03T15:25:58.714Z,100.00
2023-03-03T15:26:56.661Z,100.00
2023-03-03T15:27:56.657Z,100.00
2023-03-03T15:28:56.688Z,100.00
2023-03-03T15:29:56.740Z,100.00
2023-03-03T15:30:56.794Z,100.00
2023-03-03T15:31:56.798Z,100.00
2023-03-03T15:32:56.890Z,100.00
2023-03-03T15:33:56.769Z,100.00
2023-03-03T15:34:56.807Z,100.00
2023-03-03T15:35:56.840Z,100.00
2023-03-03T15:36:57.456Z,100.00
2023-03-03T15:37:56.808Z,100.00
2023-03-03T15:38:56.936Z,100.00
2023-03-03T15:39:56.930Z,100.00
2023-03-03T15:40:56.910Z,100.00
2023-03-03T15:41:56.969Z,100.00
2023-03-03T15:42:56.908Z,100.00
2023-03-03T15:43:57.043Z,100.00
2023-03-03T15:44:57.144Z,100.00
2023-03-03T15:45:57.192Z,100.00
2023-03-03T15:46:57.104Z,100.00
2023-03-03T15:47:57.131Z,100.00
2023-03-03T15:48:57.190Z,100.00
2023-03-03T15:49:57.137Z,100.00
2023-03-03T15:50:57.261Z,100.00
2023-03-03T15:52:03.403Z,100.00
2023-03-03T15:52:57.292Z,100.00
2023-03-03T15:53:57.282Z,100.00
2023-03-03T15:54:57.283Z,100.00
2023-03-03T15:55:57.325Z,100.00
2023-03-03T15:56:58.348Z,100.00
2023-03-03T15:57:57.316Z,100.00
2023-03-03T15:58:57.315Z,100.00
2023-03-03T15:59:57.309Z,100.00
2023-03-03T16:00:57.216Z,100.00
2023-03-03T16:01:57.747Z,100.00
2023-03-03T16:02:58.909Z,100.00
2023-03-03T16:03:57.308Z,100.00
2023-03-03T16:04:57.312Z,100.00
2023-03-03T16:05:57.304Z,100.00
2023-03-03T16:06:57.359Z,100.00
2023-03-03T16:07:57.397Z,100.00
2023-03-03T16:08:57.310Z,100.00
2023-03-03T16:09:57.390Z,100.00
2023-03-03T16:10:57.456Z,100.00
2023-03-03T16:11:57.913Z,100.00
2023-03-03T16:12:57.389Z,100.00
2023-03-03T16:13:57.517Z,100.00
2023-03-03T16:14:57.549Z,100.00
2023-03-03T16:15:57.616Z,100.00
2023-03-03T16:16:57.530Z,100.00
2023-03-03T16:17:57.606Z,100.00
2023-03-03T16:18:58.549Z,100.00
2023-03-03T16:19:57.579Z,100.00
2023-03-03T16:20:57.686Z,100.00
2023-03-03T16:21:57.853Z,100.00
2023-03-03T16:22:57.607Z,100.00
2023-03-03T16:23:57.721Z,100.00
2023-03-03T16:24:57.899Z,100.00
2023-03-03T16:25:57.824Z,100.00
2023-03-03T16:26:57.871Z,100.00
2023-03-03T16:27:57.898Z,100.00
2023-03-03T16:28:58.013Z,100.00
2023-03-03T16:29:57.824Z,100.00
2023-03-03T16:30:57.932Z,100.00
2023-03-03T16:31:58.056Z,100.00
2023-03-03T16:32:57.992Z,100.00
2023-03-03T16:33:58.046Z,100.00
2023-03-03T16:34:58.052Z,100.00
2023-03-03T16:35:58.021Z,100.00
2023-03-03T16:36:58.127Z,100.00
2023-03-03T16:37:58.095Z,100.00
2023-03-03T16:38:58.079Z,100.00
2023-03-03T16:39:58.158Z,100.00
2023-03-03T16:40:58.285Z,100.00
2023-03-03T16:41:58.309Z,100.00
2023-03-03T16:42:58.227Z,100.00
2023-03-03T16:43:58.269Z,100.00
2023-03-03T16:44:58.274Z,100.00
2023-03-03T16:45:58.399Z,100.00
2023-03-03T16:46:58.361Z,100.00
2023-03-03T16:47:58.461Z,100.00
2023-03-03T16:48:58.356Z,100.00
2023-03-03T16:49:58.308Z,100.00
2023-03-03T16:50:58.417Z,100.00
2023-03-03T16:51:58.440Z,100.00
2023-03-03T16:52:58.432Z,100.00
2023-03-03T16:53:58.480Z,100.00
2023-03-03T16:54:58.547Z,100.00
2023-03-03T16:55:58.430Z,100.00
2023-03-03T16:56:58.623Z,100.00
2023-03-03T16:57:58.673Z,100.00
2023-03-03T16:58:58.758Z,100.00
2023-03-03T16:59:58.682Z,100.00
2023-03-03T17:00:58.670Z,100.00
2023-03-03T17:01:58.682Z,100.00
2023-03-03T17:02:58.707Z,100.00
2023-03-03T17:03:58.733Z,100.00
2023-03-03T17:04:58.925Z,100.00
2023-03-03T17:05:58.760Z,100.00
2023-03-03T17:06:58.855Z,100.00
2023-03-03T17:07:58.786Z,100.00
2023-03-03T17:08:58.815Z,100.00
2023-03-03T17:09:58.816Z,100.00
2023-03-03T17:10:58.907Z,100.00
2023-03-03T17:11:58.934Z,100.00
2023-03-03T17:12:58.962Z,100.00
2023-03-03T17:13:59.069Z,100.00
2023-03-03T17:14:58.962Z,100.00
2023-03-03T17:15:58.971Z,100.00
2023-03-03T17:17:01.363Z,100.00
2023-03-03T17:17:59.080Z,100.00
2023-03-03T17:18:59.508Z,100.00
2023-03-03T17:19:59.157Z,100.00
2023-03-03T17:20:59.201Z,100.00
2023-03-03T17:21:59.285Z,100.00
2023-03-03T17:22:59.187Z,100.00
2023-03-03T17:23:59.224Z,100.00
2023-03-03T17:24:59.230Z,100.00
2023-03-03T17:25:59.315Z,100.00
2023-03-03T17:26:59.516Z,100.00
2023-03-03T17:27:59.365Z,100.00
2023-03-03T17:28:59.424Z,100.00
2023-03-03T17:29:59.400Z,100.00
2023-03-03T17:30:59.441Z,100.00
2023-03-03T17:31:59.682Z,100.00
2023-03-03T17:32:59.494Z,100.00
2023-03-03T17:33:59.466Z,100.00
2023-03-03T17:34:59.534Z,100.00
2023-03-03T17:35:59.598Z,100.00
2023-03-03T17:36:59.615Z,100.00
2023-03-03T17:37:59.641Z,100.00
2023-03-03T17:38:59.604Z,100.00
2023-03-03T17:40:01.856Z,100.00
2023-03-03T17:40:59.688Z,100.00
2023-03-03T17:42:00.234Z,100.00
2023-03-03T17:42:59.750Z,100.00
2023-03-03T17:44:01.428Z,100.00
2023-03-03T17:44:59.766Z,100.00
2023-03-03T17:45:59.858Z,100.00
2023-03-03T17:47:03.486Z,100.00
2023-03-03T17:48:02.836Z,100.00
2023-03-03T17:48:59.789Z,100.00
2023-03-03T17:49:59.900Z,100.00
2023-03-03T17:50:59.864Z,100.00
2023-03-03T17:51:59.829Z,100.00
2023-03-03T17:52:59.849Z,100.00
2023-03-03T17:53:59.909Z,100.00
2023-03-03T17:54:59.762Z,100.00
2023-03-03T17:56:21.583Z,100.00
2023-03-03T17:57:00.106Z,100.00
2023-03-03T17:58:05.796Z,100.00
2023-03-03T17:58:59.904Z,100.00
2023-03-03T18:00:08.864Z,100.00
2023-03-03T18:01:18.194Z,100.00
2023-03-03T18:01:59.962Z,100.00
2023-03-03T18:03:00.223Z,100.00
2023-03-03T18:04:00.093Z,100.00
2023-03-03T18:04:59.900Z,100.00
2023-03-03T18:05:59.904Z,100.00
2023-03-03T18:07:03.317Z,100.00
2023-03-03T18:08:00.025Z,100.00
2023-03-03T18:09:13.244Z,100.00
2023-03-03T18:09:59.937Z,100.00
2023-03-03T18:10:59.939Z,100.00
2023-03-03T18:11:59.881Z,100.00
2023-03-03T18:13:00.023Z,100.00
2023-03-03T18:14:02.008Z,100.00
2023-03-03T18:14:59.988Z,100.00
2023-03-03T18:16:11.073Z,100.00
2023-03-03T18:17:08.673Z,100.00
2023-03-03T18:18:01.666Z,100.00
2023-03-03T18:18:59.967Z,100.00
2023-03-03T18:20:01.949Z,100.00
2023-03-03T18:20:59.922Z,100.00
2023-03-03T18:22:03.473Z,100.00
2023-03-03T18:23:02.412Z,100.00
2023-03-03T18:24:03.143Z,100.00
2023-03-03T18:25:02.728Z,100.00
2023-03-03T18:26:00.105Z,100.00
2023-03-03T18:27:00.062Z,100.00
2023-03-03T18:28:00.122Z,100.00
2023-03-03T18:29:09.221Z,100.00
2023-03-03T18:30:00.217Z,100.00
2023-03-03T18:31:00.132Z,100.00
2023-03-03T18:32:00.165Z,100.00
2023-03-03T18:33:00.049Z,100.00
2023-03-03T18:34:00.021Z,100.00
2023-03-03T18:35:02.104Z,100.00
2023-03-03T18:36:00.227Z,100.00
2023-03-03T18:37:00.128Z,100.00
2023-03-03T18:38:00.140Z,100.00
2023-03-03T18:39:00.032Z,100.00
2023-03-03T18:40:00.153Z,100.00
2023-03-03T18:40:59.997Z,100.00
2023-03-03T18:42:00.016Z,100.00
2023-03-03T18:43:00.130Z,100.00
2023-03-03T18:44:00.058Z,100.00
2023-03-03T18:45:00.136Z,100.00
2023-03-03T18:46:00.053Z,100.00
2023-03-03T18:47:00.114Z,100.00
2023-03-03T18:48:00.015Z,100.00
2023-03-03T18:49:00.111Z,100.00
2023-03-03T18:50:00.107Z,100.00
2023-03-03T18:51:00.331Z,100.00
2023-03-03T18:52:00.515Z,100.00
2023-03-03T18:53:00.199Z,100.00
2023-03-03T18:54:00.211Z,100.00
2023-03-03T18:55:00.245Z,100.00
2023-03-03T18:56:00.257Z,100.00
2023-03-03T18:57:00.427Z,100.00
2023-03-03T18:58:00.266Z,100.00
2023-03-03T18:59:00.262Z,100.00
2023-03-03T19:00:00.392Z,100.00
2023-03-03T19:01:00.424Z,100.00
2023-03-03T19:02:00.350Z,100.00
2023-03-03T19:03:00.450Z,100.00
2023-03-03T19:04:02.393Z,100.00
2023-03-03T19:05:00.547Z,100.00
2023-03-03T19:06:00.499Z,100.00
2023-03-03T19:07:00.582Z,100.00
2023-03-03T19:08:00.597Z,100.00
2023-03-03T19:09:02.937Z,100.00
2023-03-03T19:10:00.707Z,100.00
2023-03-03T19:11:00.753Z,100.00
2023-03-03T19:12:00.664Z,100.00
2023-03-03T19:13:00.673Z,100.00
2023-03-03T19:14:00.576Z,100.00
2023-03-03T19:15:00.679Z,100.00
2023-03-03T19:16:00.865Z,100.00
2023-03-03T19:17:00.673Z,100.00
2023-03-03T19:18:00.830Z,100.00
2023-03-03T19:19:00.841Z,100.00
2023-03-03T19:20:00.879Z,100.00
2023-03-03T19:21:00.884Z,100.00
2023-03-03T19:22:00.906Z,100.00
2023-03-03T19:23:00.862Z,100.00
2023-03-03T19:24:01.094Z,100.00
2023-03-03T19:25:00.949Z,100.00
2023-03-03T19:26:00.965Z,100.00
2023-03-03T19:27:01.063Z,100.00
2023-03-03T19:28:01.014Z,100.00
2023-03-03T19:29:01.088Z,100.00
2023-03-03T19:30:01.099Z,100.00
2023-03-03T19:31:01.167Z,100.00
2023-03-03T19:32:01.100Z,100.00
2023-03-03T19:33:01.181Z,100.00
2023-03-03T19:34:01.230Z,100.00
2023-03-03T19:35:01.181Z,100.00
2023-03-03T19:36:01.283Z,100.00
2023-03-03T19:37:01.570Z,100.00
2023-03-03T19:38:01.344Z,100.00
2023-03-03T19:39:01.403Z,100.00
2023-03-03T19:40:01.397Z,100.00
2023-03-03T19:41:01.692Z,100.00
2023-03-03T19:42:01.416Z,100.00
2023-03-03T19:43:01.297Z,100.00
2023-03-03T19:44:01.392Z,100.00
2023-03-03T19:45:01.556Z,100.00
